Time;durP1;ratioP1;P1;durP2;ratioP2;P2;SDS_P1;SDS_P2;PMS_P1;PMS_P2;Temp;Humidity;BMP_temperature;BMP_pressure;BME280_temperature;BME280_humidity;BME280_pressure;Samples;Min_cycle;Max_cycle;Signal;HPM_P1;HPM_P2
2024/03/05 00:01:36;;;;;;;6.30;1.80;;;7.60;99.90;;;;;;4966814;28;20643;-81
2024/03/05 00:04:05;;;;;;;8.73;2.10;;;7.60;99.90;;;;;;4967993;28;20038;-81
2024/03/05 00:06:32;;;;;;;5.28;2.28;;;7.80;99.90;;;;;;4970320;28;20042;-81
2024/03/05 00:08:59;;;;;;;5.60;1.48;;;7.80;99.90;;;;;;4972143;28;20073;-81
2024/03/05 00:11:25;;;;;;;7.68;2.55;;;7.70;99.90;;;;;;4972526;28;20065;-81
2024/03/05 00:13:52;;;;;;;11.50;2.10;;;7.70;99.90;;;;;;4972942;28;20034;-82
2024/03/05 00:16:18;;;;;;;7.45;2.17;;;7.70;99.90;;;;;;4974918;28;20770;-82
2024/03/05 00:18:45;;;;;;;5.72;1.45;;;7.60;99.90;;;;;;4977088;28;20037;-82
2024/03/05 00:21:12;;;;;;;6.03;1.80;;;7.60;99.90;;;;;;4977135;28;20042;-81
2024/03/05 00:23:38;;;;;;;4.40;1.58;;;7.50;99.90;;;;;;4975572;28;20043;-82
2024/03/05 00:26:05;;;;;;;5.65;1.77;;;7.60;99.90;;;;;;4977145;28;20484;-81
2024/03/05 00:28:31;;;;;;;5.20;1.38;;;7.60;99.90;;;;;;4975909;28;20034;-81
2024/03/05 00:30:57;;;;;;;4.47;1.63;;;7.60;99.90;;;;;;4977372;28;20397;-81
2024/03/05 00:33:24;;;;;;;6.07;1.83;;;7.60;99.90;;;;;;4974971;28;20034;-81
2024/03/05 00:35:51;;;;;;;2.72;1.20;;;7.50;99.90;;;;;;4977629;28;20484;-82
2024/03/05 00:38:16;;;;;;;5.45;2.05;;;7.50;99.90;;;;;;4974758;28;21409;-82
2024/03/05 00:40:42;;;;;;;11.15;2.33;;;7.50;99.90;;;;;;4977200;28;21187;-82
2024/03/05 00:43:08;;;;;;;5.53;1.52;;;7.40;99.90;;;;;;4978295;28;20046;-82
2024/03/05 00:45:35;;;;;;;6.00;1.20;;;7.50;99.90;;;;;;4977051;28;20077;-82
2024/03/05 00:48:01;;;;;;;6.03;1.98;;;7.30;99.90;;;;;;4976954;28;20519;-82
2024/03/05 00:50:27;;;;;;;8.65;1.63;;;7.20;99.90;;;;;;4976198;28;20042;-82
2024/03/05 00:52:53;;;;;;;4.47;1.42;;;7.30;99.90;;;;;;4975997;28;20038;-82
2024/03/05 00:55:19;;;;;;;9.95;1.67;;;7.20;99.90;;;;;;4975704;28;20049;-80
2024/03/05 00:57:45;;;;;;;3.95;1.55;;;7.10;99.90;;;;;;4975145;28;20037;-82
2024/03/05 01:00:13;;;;;;;4.43;1.60;;;6.90;99.90;;;;;;4975367;28;20417;-81
2024/03/05 01:02:41;;;;;;;6.68;1.77;;;6.90;99.90;;;;;;4977269;28;20245;-82
2024/03/05 01:05:09;;;;;;;4.38;1.85;;;6.90;99.90;;;;;;4974978;28;20038;-82
2024/03/05 01:07:36;;;;;;;4.78;1.58;;;7.00;99.90;;;;;;4975917;28;21362;-81
2024/03/05 01:10:02;;;;;;;6.00;1.85;;;7.10;99.90;;;;;;4974815;28;20054;-82
2024/03/05 01:12:27;;;;;;;5.60;1.48;;;7.10;99.90;;;;;;4975568;28;20030;-79
2024/03/05 01:14:54;;;;;;;7.38;2.33;;;7.20;99.90;;;;;;4974969;28;20054;-82
2024/03/05 01:17:20;;;;;;;7.88;1.60;;;7.50;99.90;;;;;;4975485;28;20038;-82
2024/03/05 01:19:46;;;;;;;7.10;2.03;;;7.40;99.90;;;;;;4976797;28;20049;-82
2024/03/05 01:22:12;;;;;;;6.63;1.80;;;7.50;99.90;;;;;;4975326;28;20484;-82
2024/03/05 01:24:37;;;;;;;7.32;1.65;;;7.10;99.90;;;;;;4974911;28;20042;-81
2024/03/05 01:27:04;;;;;;;5.40;1.95;;;7.00;99.90;;;;;;4976040;28;20034;-82
2024/03/05 01:29:30;;;;;;;12.40;3.40;;;7.10;99.90;;;;;;4975090;28;20084;-82
2024/03/05 01:31:58;;;;;;;4.55;1.85;;;7.20;99.90;;;;;;4975028;28;20049;-82
2024/03/05 01:34:24;;;;;;;5.65;2.00;;;7.40;99.90;;;;;;4975031;28;20036;-82
2024/03/05 01:36:50;;;;;;;5.90;1.67;;;7.40;99.90;;;;;;4977448;28;20034;-82
2024/03/05 01:39:17;;;;;;;5.32;1.42;;;7.50;99.90;;;;;;4976628;28;20080;-82
2024/03/05 01:41:44;;;;;;;8.38;2.30;;;7.30;99.90;;;;;;4974941;28;20405;-82
2024/03/05 01:44:12;;;;;;;5.75;1.60;;;7.10;99.90;;;;;;4974606;28;20031;-82
2024/03/05 01:46:39;;;;;;;5.25;1.42;;;7.10;99.90;;;;;;4976827;28;20027;-83
2024/03/05 01:49:06;;;;;;;6.07;1.90;;;7.30;99.90;;;;;;4971098;28;20567;-82
2024/03/05 01:51:32;;;;;;;7.90;1.95;;;7.20;99.90;;;;;;4971952;28;20133;-82
2024/03/05 01:53:58;;;;;;;5.80;1.50;;;7.10;99.90;;;;;;4972267;28;20042;-82
2024/03/05 01:56:24;;;;;;;6.80;1.80;;;7.00;99.90;;;;;;4971312;28;20046;-82
2024/03/05 01:58:51;;;;;;;7.10;1.50;;;7.20;99.90;;;;;;4971463;28;20092;-81
2024/03/05 02:01:18;;;;;;;8.40;1.25;;;7.00;99.90;;;;;;4972358;28;20042;-81
2024/03/05 02:03:43;;;;;;;4.70;1.88;;;7.00;99.90;;;;;;4970711;28;20030;-82
2024/03/05 02:06:11;;;;;;;6.40;1.85;;;7.00;99.90;;;;;;4971114;28;20045;-79
2024/03/05 02:08:38;;;;;;;7.90;1.80;;;6.80;99.90;;;;;;4974650;28;20125;-82
2024/03/05 02:11:04;;;;;;;5.35;2.03;;;6.70;99.90;;;;;;4973456;28;20050;-81
2024/03/05 02:13:31;;;;;;;7.30;2.38;;;6.90;99.90;;;;;;4973999;28;20395;-82
2024/03/05 02:15:57;;;;;;;6.10;1.83;;;7.10;99.90;;;;;;4975448;28;20046;-82
2024/03/05 02:18:22;;;;;;;8.30;2.47;;;7.20;99.90;;;;;;4974415;28;20037;-82
2024/03/05 02:20:49;;;;;;;4.28;1.73;;;7.10;99.90;;;;;;4975222;28;21184;-83
2024/03/05 02:23:16;;;;;;;5.50;1.60;;;6.80;99.90;;;;;;4973367;28;20061;-83
2024/03/05 02:25:42;;;;;;;6.88;2.00;;;6.70;99.90;;;;;;4974735;28;20026;-83
2024/03/05 02:28:10;;;;;;;4.07;1.40;;;6.60;99.90;;;;;;4975095;28;20042;-80
2024/03/05 02:30:36;;;;;;;5.43;1.60;;;6.60;99.90;;;;;;4974963;28;20038;-82
2024/03/05 02:33:01;;;;;;;2.65;1.27;;;6.60;99.90;;;;;;4973210;28;20038;-80
2024/03/05 02:35:27;;;;;;;7.55;2.10;;;6.50;99.90;;;;;;4974250;28;20038;-82
2024/03/05 02:37:53;;;;;;;6.22;2.00;;;6.50;99.90;;;;;;4973270;28;20034;-83
2024/03/05 02:40:19;;;;;;;8.43;1.67;;;6.50;99.90;;;;;;4974513;28;20065;-82
2024/03/05 02:42:44;;;;;;;9.98;1.83;;;6.50;99.90;;;;;;4974632;28;20038;-82
2024/03/05 02:45:11;;;;;;;7.13;1.80;;;6.50;99.90;;;;;;4973950;28;20042;-82
2024/03/05 02:47:41;;;;;;;5.72;2.10;;;6.70;99.90;;;;;;4975172;28;20105;-82
2024/03/05 02:50:11;;;;;;;5.88;2.33;;;6.90;99.90;;;;;;4975202;28;20037;-83
2024/03/05 02:52:38;;;;;;;6.00;2.05;;;6.90;99.90;;;;;;4973452;28;20301;-80
2024/03/05 02:55:09;;;;;;;6.72;1.65;;;6.80;99.90;;;;;;4973638;28;20045;-80
2024/03/05 02:57:39;;;;;;;5.10;1.90;;;6.60;99.90;;;;;;4975771;28;20184;-82
2024/03/05 03:00:08;;;;;;;5.25;1.60;;;6.60;99.90;;;;;;4974012;28;20046;-75
2024/03/05 03:02:34;;;;;;;5.35;1.77;;;6.60;99.90;;;;;;4971916;28;20046;-80
2024/03/05 03:05:00;;;;;;;5.03;1.90;;;6.70;99.90;;;;;;4974634;28;20030;-80
2024/03/05 03:07:26;;;;;;;6.85;2.78;;;6.70;99.90;;;;;;4974622;28;20037;-81
2024/03/05 03:09:52;;;;;;;6.15;2.13;;;6.70;99.90;;;;;;4973409;28;20058;-81
2024/03/05 03:12:18;;;;;;;4.55;1.60;;;6.70;99.90;;;;;;4975345;28;20093;-80
2024/03/05 03:14:44;;;;;;;6.15;1.90;;;6.70;99.90;;;;;;4972346;28;20100;-80
2024/03/05 03:17:10;;;;;;;4.78;2.00;;;6.70;99.90;;;;;;4973877;28;20523;-79
2024/03/05 03:19:36;;;;;;;7.20;2.28;;;6.40;99.90;;;;;;4974569;28;20042;-83
2024/03/05 03:22:02;;;;;;;6.90;2.20;;;6.50;99.90;;;;;;4973881;28;20496;-80
2024/03/05 03:24:28;;;;;;;6.93;1.85;;;6.60;99.90;;;;;;4971938;28;20030;-83
2024/03/05 03:26:54;;;;;;;8.05;2.35;;;6.60;99.90;;;;;;4974998;28;20038;-82
2024/03/05 03:29:20;;;;;;;6.32;2.22;;;6.50;99.90;;;;;;4973394;28;20030;-82
2024/03/05 03:31:46;;;;;;;8.45;2.33;;;6.50;99.90;;;;;;4975672;28;20125;-80
2024/03/05 03:34:16;;;;;;;5.30;1.77;;;6.40;99.90;;;;;;4974365;28;20042;-79
2024/03/05 03:36:42;;;;;;;7.85;2.00;;;6.50;99.90;;;;;;4973032;28;20169;-80
2024/03/05 03:39:11;;;;;;;7.72;2.25;;;6.40;99.90;;;;;;4977404;28;20043;-80
2024/03/05 03:41:40;;;;;;;7.53;1.90;;;6.50;99.90;;;;;;4979536;28;20034;-79
2024/03/05 03:44:08;;;;;;;8.50;2.65;;;6.50;99.90;;;;;;4977927;28;20030;-79
2024/03/05 03:46:37;;;;;;;14.85;2.63;;;6.50;99.90;;;;;;4976317;28;20034;-79
2024/03/05 03:49:07;;;;;;;6.93;2.28;;;6.50;99.90;;;;;;4978123;28;20543;-80
2024/03/05 03:51:33;;;;;;;6.68;2.08;;;6.50;99.90;;;;;;4976546;28;20042;-80
2024/03/05 03:53:59;;;;;;;4.78;1.95;;;6.50;99.90;;;;;;4977208;28;20034;-80
2024/03/05 03:56:28;;;;;;;12.48;2.40;;;6.40;99.90;;;;;;4978308;28;20555;-80
2024/03/05 03:58:53;;;;;;;5.22;1.90;;;6.60;99.90;;;;;;4978487;28;20038;-79
2024/03/05 04:01:20;;;;;;;6.10;2.60;;;6.60;99.90;;;;;;4974094;28;20711;-79
2024/03/05 04:03:47;;;;;;;8.68;2.10;;;6.50;99.90;;;;;;4973258;28;21391;-80
2024/03/05 04:06:13;;;;;;;8.60;2.33;;;6.40;99.90;;;;;;4973730;28;20419;-80
2024/03/05 04:08:39;;;;;;;5.40;1.83;;;6.40;99.90;;;;;;4971517;28;20030;-79
2024/03/05 04:11:04;;;;;;;4.78;1.80;;;6.40;99.90;;;;;;4971409;28;20062;-79
2024/03/05 04:13:30;;;;;;;9.93;2.50;;;6.40;99.90;;;;;;4974414;28;20100;-80
2024/03/05 04:15:56;;;;;;;7.18;2.40;;;6.50;99.90;;;;;;4971545;28;20087;-80
2024/03/05 04:18:21;;;;;;;7.57;1.88;;;6.60;99.90;;;;;;4970961;28;20121;-82
2024/03/05 04:20:47;;;;;;;9.80;1.92;;;6.50;99.90;;;;;;4970827;28;20057;-82
2024/03/05 04:23:13;;;;;;;4.00;1.98;;;6.70;99.90;;;;;;4969885;28;20030;-82
2024/03/05 04:25:41;;;;;;;6.18;2.05;;;6.60;99.90;;;;;;4971968;28;20042;-82
2024/03/05 04:28:12;;;;;;;4.22;1.98;;;6.50;99.90;;;;;;4973419;28;20058;-82
2024/03/05 04:30:39;;;;;;;7.53;2.50;;;6.80;99.90;;;;;;4972408;28;20061;-82
2024/03/05 04:33:08;;;;;;;6.15;2.17;;;6.70;99.90;;;;;;4972542;28;20528;-80
2024/03/05 04:35:33;;;;;;;7.15;2.38;;;6.60;99.90;;;;;;4972412;28;20041;-82
2024/03/05 04:38:00;;;;;;;6.82;2.15;;;6.40;99.90;;;;;;4973587;28;20042;-82
2024/03/05 04:40:26;;;;;;;6.45;2.55;;;6.40;99.90;;;;;;4972207;28;20520;-82
2024/03/05 04:42:52;;;;;;;5.47;2.42;;;6.60;99.90;;;;;;4972387;28;20030;-81
2024/03/05 04:45:17;;;;;;;7.10;2.40;;;6.80;99.90;;;;;;4972599;28;20073;-81
2024/03/05 04:47:44;;;;;;;13.68;2.47;;;6.60;99.90;;;;;;4972507;28;20046;-82
2024/03/05 04:50:09;;;;;;;5.82;1.88;;;6.50;99.90;;;;;;4972376;28;20062;-82
2024/03/05 04:52:35;;;;;;;8.98;2.05;;;6.20;99.90;;;;;;4971079;28;20125;-80
2024/03/05 04:55:02;;;;;;;8.00;2.00;;;6.20;99.90;;;;;;4973849;28;20422;-82
2024/03/05 04:57:27;;;;;;;3.70;1.73;;;6.10;99.90;;;;;;4973036;28;20034;-82
2024/03/05 04:59:53;;;;;;;7.45;2.45;;;6.10;99.90;;;;;;4969702;28;20175;-82
2024/03/05 05:02:18;;;;;;;7.38;2.20;;;6.00;99.90;;;;;;4969528;28;20033;-82
2024/03/05 05:04:44;;;;;;;7.78;2.45;;;6.10;99.90;;;;;;4971022;28;20038;-81
2024/03/05 05:07:10;;;;;;;6.18;1.85;;;5.90;99.90;;;;;;4969456;28;20879;-82
2024/03/05 05:09:36;;;;;;;6.30;2.35;;;5.90;99.90;;;;;;4968458;28;20727;-82
2024/03/05 05:12:02;;;;;;;6.30;2.20;;;5.90;99.90;;;;;;4971175;28;20034;-79
2024/03/05 05:14:29;;;;;;;6.90;2.38;;;6.00;99.90;;;;;;4969654;28;20516;-80
2024/03/05 05:16:56;;;;;;;9.68;2.70;;;6.00;99.90;;;;;;4969749;28;20150;-80
2024/03/05 05:19:21;;;;;;;6.20;2.50;;;6.10;99.90;;;;;;4969956;28;20465;-82
2024/03/05 05:21:47;;;;;;;7.88;2.08;;;6.00;99.90;;;;;;4969386;28;20041;-79
2024/03/05 05:24:13;;;;;;;8.52;2.80;;;5.90;99.90;;;;;;4969115;28;20038;-80
2024/03/05 05:26:42;;;;;;;9.75;2.35;;;6.20;99.90;;;;;;4970449;28;20137;-79
2024/03/05 05:29:08;;;;;;;8.57;2.65;;;6.40;99.90;;;;;;4969578;28;20026;-79
2024/03/05 05:31:36;;;;;;;5.93;2.40;;;6.40;99.90;;;;;;4969674;28;20181;-82
2024/03/05 05:34:02;;;;;;;7.82;2.55;;;6.40;99.90;;;;;;4970717;28;20030;-82
2024/03/05 05:36:29;;;;;;;7.90;2.08;;;6.30;99.90;;;;;;4969175;28;20896;-82
2024/03/05 05:38:58;;;;;;;5.88;2.22;;;6.30;99.90;;;;;;4968258;28;20070;-82
2024/03/05 05:41:24;;;;;;;8.40;2.38;;;6.20;99.90;;;;;;4970916;28;20132;-82
2024/03/05 05:43:50;;;;;;;6.68;2.55;;;6.20;99.90;;;;;;4969118;28;20477;-82
2024/03/05 05:46:18;;;;;;;7.30;2.95;;;6.00;99.90;;;;;;4968364;28;20097;-82
2024/03/05 05:48:49;;;;;;;4.85;2.47;;;6.00;99.90;;;;;;4969707;28;20038;-81
2024/03/05 05:51:22;;;;;;;8.23;2.38;;;6.10;99.90;;;;;;4970616;28;20505;-82
2024/03/05 05:53:49;;;;;;;4.47;2.00;;;6.00;99.90;;;;;;4968389;28;20535;-82
2024/03/05 05:56:16;;;;;;;7.10;2.38;;;6.00;99.90;;;;;;4968484;28;20046;-80
2024/03/05 05:58:43;;;;;;;7.10;2.78;;;6.10;99.90;;;;;;4968304;28;20362;-82
2024/03/05 06:01:10;;;;;;;6.80;2.53;;;6.10;99.90;;;;;;4967848;28;21017;-82
2024/03/05 06:03:38;;;;;;;4.68;2.35;;;6.10;99.90;;;;;;4967845;28;20035;-82
2024/03/05 06:06:04;;;;;;;5.63;2.38;;;6.20;99.90;;;;;;4967686;28;20089;-82
2024/03/05 06:08:30;;;;;;;7.38;2.38;;;6.10;99.90;;;;;;4969337;28;20038;-82
2024/03/05 06:10:58;;;;;;;8.10;2.72;;;6.00;99.90;;;;;;4968606;28;20050;-79
2024/03/05 06:13:24;;;;;;;4.43;2.38;;;6.10;99.90;;;;;;4968445;28;20041;-80
2024/03/05 06:15:53;;;;;;;7.93;2.83;;;6.30;99.90;;;;;;4969311;28;20030;-80
2024/03/05 06:18:18;;;;;;;6.93;2.50;;;6.40;99.90;;;;;;4969543;28;20842;-80
2024/03/05 06:20:44;;;;;;;7.75;2.17;;;6.30;99.90;;;;;;4972526;28;20042;-81
2024/03/05 06:23:11;;;;;;;10.75;2.72;;;6.30;99.90;;;;;;4967392;28;20053;-79
2024/03/05 06:25:37;;;;;;;6.53;2.58;;;6.50;99.90;;;;;;4967310;28;20065;-80
2024/03/05 06:28:03;;;;;;;6.13;2.28;;;6.70;99.90;;;;;;4967286;28;20037;-77
2024/03/05 06:30:29;;;;;;;6.95;2.97;;;6.60;99.90;;;;;;4968100;28;20492;-80
2024/03/05 06:32:55;;;;;;;8.43;2.83;;;6.70;99.90;;;;;;4968362;28;20026;-80
2024/03/05 06:35:24;;;;;;;5.75;2.88;;;6.70;99.90;;;;;;4969266;28;20026;-79
2024/03/05 06:37:50;;;;;;;8.50;3.20;;;6.60;99.90;;;;;;4974755;28;20133;-80
2024/03/05 06:40:22;;;;;;;5.65;2.47;;;6.90;99.90;;;;;;4969508;28;20074;-79
2024/03/05 06:42:52;;;;;;;6.85;3.30;;;6.50;99.90;;;;;;4966291;28;20915;-80
2024/03/05 06:45:27;;;;;;;7.53;3.28;;;6.40;99.90;;;;;;4967138;28;20041;-79
2024/03/05 06:47:56;;;;;;;7.88;2.90;;;6.50;99.90;;;;;;4968302;28;20033;-81
2024/03/05 06:50:23;;;;;;;12.75;2.92;;;6.50;99.90;;;;;;4968038;28;20137;-80
2024/03/05 06:58:20;;;;;;;5.10;2.17;;;6.30;99.90;;;;;;4966058;28;20192;-80
2024/03/05 07:00:46;;;;;;;6.43;2.58;;;6.50;99.90;;;;;;4966799;28;20042;-80
2024/03/05 07:03:13;;;;;;;6.00;2.55;;;6.50;99.90;;;;;;4965732;28;20031;-80
2024/03/05 07:05:39;;;;;;;7.05;2.92;;;6.60;99.90;;;;;;4966481;28;20070;-80
2024/03/05 07:08:07;;;;;;;9.68;2.42;;;6.70;99.90;;;;;;4965199;28;20145;-80
2024/03/05 07:10:37;;;;;;;7.38;2.50;;;6.50;99.90;;;;;;4964853;28;20136;-79
2024/03/05 07:13:03;;;;;;;6.50;2.38;;;6.50;99.90;;;;;;4965001;28;20548;-79
2024/03/05 07:15:29;;;;;;;9.05;3.05;;;6.50;99.90;;;;;;4970978;28;20053;-79
2024/03/05 07:17:55;;;;;;;5.95;2.40;;;6.70;99.90;;;;;;4969344;28;20039;-79
2024/03/05 07:20:27;;;;;;;8.70;3.55;;;6.80;99.90;;;;;;4969337;28;20112;-79
2024/03/05 07:22:54;;;;;;;8.88;2.78;;;7.00;99.90;;;;;;4970297;28;20079;-79
2024/03/05 07:25:22;;;;;;;5.82;2.55;;;7.00;99.90;;;;;;4970593;28;20034;-80
2024/03/05 07:27:49;;;;;;;6.03;2.67;;;7.00;99.90;;;;;;4971429;28;20042;-80
2024/03/05 07:30:19;;;;;;;8.10;2.63;;;7.10;99.90;;;;;;4968498;28;20042;-78
2024/03/05 07:32:49;;;;;;;6.13;2.38;;;7.00;99.90;;;;;;4969741;28;20027;-78
2024/03/05 07:35:17;;;;;;;8.90;2.75;;;7.10;99.90;;;;;;4970243;28;20034;-78
2024/03/05 07:37:46;;;;;;;9.65;3.17;;;7.20;99.90;;;;;;4969139;28;20038;-78
2024/03/05 07:40:17;;;;;;;4.63;2.33;;;7.30;99.90;;;;;;4969457;28;20042;-79
2024/03/05 07:42:47;;;;;;;8.55;2.92;;;7.30;99.90;;;;;;4969337;28;20034;-80
2024/03/05 07:45:16;;;;;;;8.52;3.55;;;7.30;99.90;;;;;;4971903;28;20034;-80
2024/03/05 07:47:45;;;;;;;7.22;3.58;;;6.90;99.90;;;;;;4970346;28;20815;-79
2024/03/05 07:50:12;;;;;;;5.97;3.00;;;6.90;99.90;;;;;;4969740;28;20392;-79
2024/03/05 07:52:39;;;;;;;9.75;2.88;;;6.90;99.90;;;;;;4971744;28;20485;-80
2024/03/05 07:55:10;;;;;;;8.15;2.75;;;7.10;99.90;;;;;;4971740;28;20369;-78
2024/03/05 07:57:39;;;;;;;7.63;2.13;;;7.20;99.90;;;;;;4971615;28;20692;-79
2024/03/05 08:00:13;;;;;;;6.10;3.22;;;7.30;99.90;;;;;;4973165;28;20054;-80
2024/03/05 08:02:46;;;;;;;7.65;2.75;;;7.20;99.90;;;;;;4974938;28;20045;-80
2024/03/05 08:05:17;;;;;;;5.65;2.30;;;7.30;99.90;;;;;;4973083;28;20034;-81
2024/03/05 08:07:43;;;;;;;4.65;2.33;;;7.30;99.90;;;;;;4973608;28;20036;-81
2024/03/05 08:10:10;;;;;;;6.35;2.15;;;7.40;99.90;;;;;;4975422;28;20129;-80
2024/03/05 08:12:43;;;;;;;7.57;3.38;;;7.50;99.90;;;;;;4972557;28;20058;-79
2024/03/05 08:15:13;;;;;;;5.68;2.40;;;7.60;99.90;;;;;;4972688;28;20472;-80
2024/03/05 08:17:40;;;;;;;9.65;2.67;;;7.70;99.90;;;;;;4972909;28;20042;-80
2024/03/05 08:20:07;;;;;;;11.80;3.53;;;7.70;99.90;;;;;;4974897;28;20046;-78
2024/03/05 08:22:36;;;;;;;8.50;3.05;;;7.80;99.90;;;;;;4973554;28;20030;-81
2024/03/05 08:25:12;;;;;;;9.07;3.47;;;7.70;99.90;;;;;;4971703;28;20041;-81
2024/03/05 08:27:42;;;;;;;5.40;2.63;;;7.70;99.90;;;;;;4973076;28;20041;-82
2024/03/05 08:30:10;;;;;;;29.17;15.85;;;7.80;99.90;;;;;;4973870;28;20092;-79
2024/03/05 08:32:39;;;;;;;16.30;4.40;;;8.00;99.90;;;;;;4973978;28;20045;-80
2024/03/05 08:35:06;;;;;;;7.25;2.33;;;8.70;99.90;;;;;;4972677;28;20140;-81
2024/03/05 08:37:32;;;;;;;7.40;2.22;;;9.10;99.90;;;;;;4974623;28;20615;-79
2024/03/05 08:39:58;;;;;;;12.48;3.10;;;9.50;99.90;;;;;;4972420;28;20042;-86
2024/03/05 08:42:24;;;;;;;10.05;2.70;;;9.10;99.90;;;;;;4971293;28;20031;-78
2024/03/05 08:44:49;;;;;;;4.95;2.30;;;9.10;99.90;;;;;;4973785;28;20034;-79
2024/03/05 08:47:15;;;;;;;5.00;2.13;;;8.70;99.90;;;;;;4972039;28;20555;-79
2024/03/05 08:49:41;;;;;;;9.07;2.10;;;8.50;99.90;;;;;;4971909;28;20065;-79
2024/03/05 08:52:06;;;;;;;5.60;2.13;;;8.50;99.90;;;;;;4973746;28;20026;-78
2024/03/05 08:54:32;;;;;;;8.60;2.03;;;8.50;99.90;;;;;;4972570;28;21303;-78
2024/03/05 08:56:58;;;;;;;6.85;2.53;;;8.50;99.90;;;;;;4972518;28;20031;-77
2024/03/05 08:59:27;;;;;;;4.78;1.98;;;8.50;99.90;;;;;;4973704;28;20030;-79
2024/03/05 09:01:56;;;;;;;5.38;2.22;;;8.60;99.90;;;;;;4972052;28;20515;-79
2024/03/05 09:04:23;;;;;;;14.05;2.47;;;8.60;99.90;;;;;;4974244;28;20573;-79
2024/03/05 09:06:49;;;;;;;24.42;9.05;;;8.60;99.90;;;;;;4975486;28;20034;-80
2024/03/05 09:09:16;;;;;;;7.55;2.92;;;8.70;99.90;;;;;;4975740;28;20034;-80
2024/03/05 09:11:41;;;;;;;5.63;2.38;;;8.80;99.90;;;;;;4974783;28;20144;-79
2024/03/05 09:14:08;;;;;;;8.13;2.38;;;8.80;99.90;;;;;;4974453;28;20555;-80
2024/03/05 09:16:37;;;;;;;6.15;2.35;;;8.90;99.90;;;;;;4972198;28;20042;-79
2024/03/05 09:19:03;;;;;;;6.68;2.40;;;9.30;99.90;;;;;;4972554;28;20026;-80
2024/03/05 09:21:29;;;;;;;4.60;1.77;;;9.30;99.90;;;;;;4972511;28;20042;-79
2024/03/05 09:23:54;;;;;;;5.25;2.47;;;9.20;99.90;;;;;;4972294;28;20037;-79
2024/03/05 09:26:20;;;;;;;6.45;2.13;;;9.20;99.90;;;;;;4972686;28;20053;-80
2024/03/05 09:28:46;;;;;;;10.10;3.65;;;9.30;99.90;;;;;;4973614;28;20034;-80
2024/03/05 09:31:12;;;;;;;8.73;2.33;;;9.40;99.90;;;;;;4971980;28;20038;-80
2024/03/05 09:33:38;;;;;;;6.63;2.00;;;9.50;99.90;;;;;;4972868;28;20499;-82
2024/03/05 09:36:06;;;;;;;6.75;2.65;;;9.60;99.90;;;;;;4973005;28;21376;-80
2024/03/05 09:38:32;;;;;;;7.05;2.30;;;9.70;99.90;;;;;;4970986;28;20130;-81
2024/03/05 09:40:57;;;;;;;5.78;2.05;;;9.70;99.90;;;;;;4971598;28;20058;-81
2024/03/05 09:43:25;;;;;;;4.88;2.20;;;9.70;99.90;;;;;;4972666;28;20963;-81
2024/03/05 09:45:51;;;;;;;9.00;2.30;;;9.80;99.90;;;;;;4973798;28;20048;-79
2024/03/05 09:48:19;;;;;;;7.50;2.50;;;10.60;99.90;;;;;;4972469;28;20026;-81
2024/03/05 09:50:47;;;;;;;9.35;2.80;;;10.40;99.90;;;;;;4973043;28;20092;-80
2024/03/05 09:53:14;;;;;;;9.18;2.25;;;10.30;99.90;;;;;;4971531;28;20038;-79
2024/03/05 09:55:40;;;;;;;7.60;2.60;;;10.30;99.90;;;;;;4972616;28;20060;-81
2024/03/05 09:58:11;;;;;;;8.15;4.00;;;10.30;99.90;;;;;;4971697;28;20177;-79
2024/03/05 10:00:37;;;;;;;10.60;3.65;;;10.40;99.90;;;;;;4971122;28;20057;-81
2024/03/05 10:03:03;;;;;;;13.45;3.03;;;10.40;99.90;;;;;;4972614;28;20073;-81
2024/03/05 10:05:29;;;;;;;10.18;3.15;;;10.40;99.90;;;;;;4971633;28;20038;-83
2024/03/05 10:07:55;;;;;;;8.65;2.30;;;10.30;99.90;;;;;;4971977;28;20116;-84
2024/03/05 10:10:21;;;;;;;12.57;4.00;;;10.40;99.90;;;;;;4973640;28;20495;-83
2024/03/05 10:12:49;;;;;;;7.25;2.92;;;10.40;99.90;;;;;;4971831;28;20064;-83
2024/03/05 10:15:23;;;;;;;10.63;4.03;;;10.50;99.90;;;;;;4970107;28;20624;-81
2024/03/05 10:17:52;;;;;;;8.05;2.78;;;10.70;99.90;;;;;;4970853;28;20031;-80
2024/03/05 10:20:36;;;;;;;9.13;2.38;;;10.80;99.90;;;;;;4971590;28;20081;-80
2024/03/05 10:23:04;;;;;;;4.63;1.90;;;10.90;99.90;;;;;;4972611;28;20042;-79
2024/03/05 10:25:35;;;;;;;5.97;2.50;;;10.80;99.90;;;;;;4971364;28;20112;-80
2024/03/05 10:28:04;;;;;;;7.18;3.00;;;10.90;99.90;;;;;;4969884;28;20036;-80
2024/03/05 10:30:31;;;;;;;16.30;3.00;;;10.90;99.90;;;;;;4970475;28;20735;-80
2024/03/05 10:33:07;;;;;;;6.55;2.42;;;11.10;99.90;;;;;;4971532;28;20030;-80
2024/03/05 10:35:33;;;;;;;6.03;2.20;;;11.20;99.90;;;;;;4970084;28;20069;-80
2024/03/05 10:37:59;;;;;;;5.82;2.33;;;11.30;99.90;;;;;;4970197;28;20030;-80
2024/03/05 10:40:26;;;;;;;6.38;2.28;;;11.40;99.90;;;;;;4972083;28;20406;-80
2024/03/05 10:42:55;;;;;;;8.23;2.42;;;11.40;99.90;;;;;;4971444;28;20129;-80
2024/03/05 10:45:28;;;;;;;4.75;2.20;;;11.50;99.90;;;;;;4970085;28;20042;-78
2024/03/05 10:47:58;;;;;;;8.20;2.72;;;11.60;99.90;;;;;;4970923;28;20035;-78
2024/03/05 10:50:26;;;;;;;8.00;3.75;;;11.90;99.90;;;;;;4970795;28;20928;-78
2024/03/05 10:52:53;;;;;;;5.50;2.05;;;12.10;99.90;;;;;;4969183;28;20041;-78
2024/03/05 10:55:21;;;;;;;7.35;2.40;;;11.90;99.90;;;;;;4969070;28;20049;-78
2024/03/05 11:00:35;;;;;;;7.03;1.85;;;12.10;99.90;;;;;;4969458;28;20408;-79
2024/03/05 11:03:04;;;;;;;6.55;1.90;;;12.20;99.90;;;;;;4968098;28;20512;-79
2024/03/05 11:05:39;;;;;;;8.38;2.72;;;12.30;99.90;;;;;;4970218;28;20045;-79
2024/03/05 11:08:12;;;;;;;12.15;2.78;;;12.40;99.90;;;;;;4971878;28;20034;-80
2024/03/05 11:10:41;;;;;;;5.93;2.00;;;12.60;99.90;;;;;;4969405;28;20866;-81
2024/03/05 11:13:08;;;;;;;5.13;1.55;;;12.60;99.90;;;;;;4969135;28;20413;-81
2024/03/05 11:15:35;;;;;;;4.63;1.67;;;12.60;99.90;;;;;;4966315;28;20188;-81
2024/03/05 11:18:01;;;;;;;8.38;2.72;;;12.60;99.90;;;;;;4966450;28;20038;-81
2024/03/05 11:20:40;;;;;;;5.97;2.40;;;12.90;99.90;;;;;;4967937;28;20034;-81
2024/03/05 11:23:07;;;;;;;10.55;2.47;;;12.90;99.90;;;;;;4970498;28;20117;-81
2024/03/05 11:25:33;;;;;;;7.00;2.53;;;12.90;99.90;;;;;;4971108;28;20157;-81
2024/03/05 11:27:59;;;;;;;19.80;7.15;;;13.00;99.90;;;;;;4970513;28;20030;-81
2024/03/05 11:30:30;;;;;;;38.13;17.13;;;13.20;99.90;;;;;;4968915;28;20077;-81
2024/03/05 11:33:07;;;;;;;13.50;5.75;;;13.30;99.90;;;;;;4966718;28;20039;-80
2024/03/05 11:35:36;;;;;;;15.70;8.13;;;13.30;99.90;;;;;;4967240;28;20602;-80
2024/03/05 11:38:02;;;;;;;21.13;10.38;;;13.40;99.90;;;;;;4968365;28;20074;-79
2024/03/05 11:40:32;;;;;;;10.45;4.90;;;13.70;99.90;;;;;;4965002;28;20794;-80
2024/03/05 11:42:58;;;;;;;12.23;2.97;;;13.60;99.90;;;;;;4967172;28;20060;-80
2024/03/05 11:45:51;;;;;;;7.25;2.28;;;13.50;99.90;;;;;;4966031;28;20061;-79
2024/03/05 11:48:19;;;;;;;5.20;2.08;;;13.30;99.90;;;;;;4963419;28;20504;-80
2024/03/05 11:50:52;;;;;;;20.38;8.63;;;13.30;99.90;;;;;;4968467;28;20030;-80
2024/03/05 11:53:17;;;;;;;12.18;4.35;;;13.40;99.90;;;;;;4970465;28;20038;-81
2024/03/05 11:55:43;;;;;;;9.90;2.80;;;13.40;99.90;;;;;;4968618;28;25657;-78
2024/03/05 11:58:10;;;;;;;14.60;3.22;;;13.30;99.90;;;;;;4969531;28;20035;-81
2024/03/05 12:00:37;;;;;;;8.55;2.00;;;13.30;99.90;;;;;;4972758;28;20637;-81
2024/03/05 12:03:03;;;;;;;6.88;2.88;;;13.20;99.90;;;;;;4972957;28;20070;-81
2024/03/05 12:05:32;;;;;;;5.60;2.05;;;13.30;99.90;;;;;;4973564;28;20898;-80
2024/03/05 12:08:03;;;;;;;4.78;1.92;;;13.30;99.90;;;;;;4974710;28;20034;-81
2024/03/05 12:10:34;;;;;;;10.82;2.35;;;13.50;99.90;;;;;;4972654;28;20057;-81
2024/03/05 12:13:00;;;;;;;38.95;15.30;;;13.70;99.90;;;;;;4972534;28;20038;-81
2024/03/05 12:15:30;;;;;;;52.75;23.45;;;14.00;99.90;;;;;;4971645;28;20040;-81
2024/03/05 12:17:57;;;;;;;21.10;9.15;;;14.20;99.90;;;;;;4973787;28;20042;-81
2024/03/05 12:20:23;;;;;;;13.23;4.25;;;14.10;99.90;;;;;;4972505;28;20038;-81
2024/03/05 12:22:53;;;;;;;9.85;3.40;;;14.10;99.90;;;;;;4972246;28;20026;-81
2024/03/05 12:25:26;;;;;;;24.35;10.40;;;14.00;99.90;;;;;;4970795;28;20034;-81
2024/03/05 12:27:52;;;;;;;9.73;4.40;;;14.00;99.90;;;;;;4973490;28;20046;-81
2024/03/05 12:30:18;;;;;;;6.88;2.42;;;14.20;99.90;;;;;;4971572;28;20096;-81
2024/03/05 12:32:51;;;;;;;7.80;2.08;;;14.20;99.70;;;;;;4973321;28;20042;-81
2024/03/05 12:35:20;;;;;;;6.95;2.40;;;14.30;99.90;;;;;;4973401;28;20042;-81
2024/03/05 12:37:48;;;;;;;8.52;1.88;;;14.60;99.90;;;;;;4972282;28;20038;-80
2024/03/05 12:40:15;;;;;;;37.97;19.33;;;14.70;99.30;;;;;;4972886;28;20054;-82
2024/03/05 12:42:44;;;;;;;15.45;3.67;;;14.80;99.90;;;;;;4974338;28;20035;-82
2024/03/05 12:45:15;;;;;;;18.35;11.95;;;14.70;98.40;;;;;;4973881;28;20129;-82
2024/03/05 12:47:42;;;;;;;16.58;7.35;;;14.80;99.10;;;;;;4973134;28;20117;-82
2024/03/05 12:50:08;;;;;;;24.45;11.38;;;15.00;98.50;;;;;;4969692;28;20114;-82
2024/03/05 12:52:35;;;;;;;7.05;2.67;;;15.20;97.70;;;;;;4970917;28;20034;-82
2024/03/05 12:55:03;;;;;;;6.43;1.90;;;15.20;98.00;;;;;;4961283;28;20030;-82
2024/03/05 12:57:34;;;;;;;7.32;2.05;;;15.20;98.10;;;;;;4963993;28;21172;-82
2024/03/05 13:00:01;;;;;;;6.22;2.72;;;15.20;98.70;;;;;;4964227;28;20507;-81
2024/03/05 13:02:30;;;;;;;8.85;4.35;;;15.30;97.80;;;;;;4963011;28;20086;-82